createdAt,value
2018-02-03T00:00:32.272Z,1003.44
2018-02-03T00:01:32.300Z,1003.44
2018-02-03T00:02:32.328Z,1003.48
2018-02-03T00:03:32.365Z,1003.48
2018-02-03T00:04:32.401Z,1003.49
2018-02-03T00:05:32.722Z,1003.50
2018-02-03T00:06:32.452Z,1003.53
2018-02-03T00:07:32.486Z,1003.52
2018-02-03T00:08:32.512Z,1003.51
2018-02-03T00:09:32.545Z,1003.46
2018-02-03T00:10:32.585Z,1003.49
2018-02-03T00:11:32.600Z,1003.48
2018-02-03T00:12:32.954Z,1003.46
2018-02-03T00:13:32.661Z,1003.43
2018-02-03T00:14:32.693Z,1003.43
2018-02-03T00:15:32.723Z,1003.43
2018-02-03T00:16:32.975Z,1003.42
2018-02-03T00:17:32.786Z,1003.42
2018-02-03T00:18:32.810Z,1003.44
2018-02-03T00:19:33.175Z,1003.44
2018-02-03T00:20:32.875Z,1003.43
2018-02-03T00:21:32.903Z,1003.43
2018-02-03T00:22:32.930Z,1003.44
2018-02-03T00:23:32.962Z,1003.49
2018-02-03T00:24:33.053Z,1003.43
2018-02-03T00:25:33.364Z,1003.43
2018-02-03T00:26:33.052Z,1003.40
2018-02-03T00:27:33.103Z,1003.40
2018-02-03T00:28:33.112Z,1003.47
2018-02-03T00:29:33.167Z,1003.47
2018-02-03T00:30:33.171Z,1003.42
2018-02-03T00:31:33.205Z,1003.47
2018-02-03T00:34:33.594Z,1003.48
2018-02-03T00:35:33.321Z,1003.46
2018-02-03T00:36:33.354Z,1003.46
2018-02-03T00:37:33.384Z,1003.45
2018-02-03T00:38:33.411Z,1003.51
2018-02-03T00:39:33.446Z,1003.48
2018-02-03T00:40:33.475Z,1003.47
2018-02-03T00:41:33.952Z,1003.48
2018-02-03T00:42:33.534Z,1003.44
2018-02-03T00:43:33.564Z,1003.48
2018-02-03T00:44:33.597Z,1003.48
2018-02-03T00:45:33.630Z,1003.49
2018-02-03T00:46:33.652Z,1003.48
2018-02-03T00:47:33.686Z,1003.47
2018-02-03T00:48:34.014Z,1003.46
2018-02-03T00:50:33.774Z,1003.47
2018-02-03T00:51:33.811Z,1003.43
2018-02-03T00:52:33.835Z,1003.45
2018-02-03T00:53:33.865Z,1003.44
2018-02-03T00:54:33.897Z,1003.43
2018-02-03T00:55:34.224Z,1003.39
2018-02-03T00:56:33.954Z,1003.41
2018-02-03T00:57:34.036Z,1003.39
2018-02-03T01:00:34.082Z,1003.36
2018-02-03T01:01:34.109Z,1003.36
2018-02-03T01:02:34.435Z,1003.35
2018-02-03T01:03:34.174Z,1003.34
2018-02-03T01:04:34.202Z,1003.34
2018-02-03T01:06:34.254Z,1003.32
2018-02-03T01:08:34.731Z,1003.30
2018-02-03T01:09:34.350Z,1003.32
2018-02-03T01:10:34.576Z,1003.29
2018-02-03T01:11:34.710Z,1003.32
2018-02-03T01:12:34.436Z,1003.35
2018-02-03T01:13:34.466Z,1003.35
2018-02-03T01:14:34.500Z,1003.31
2018-02-03T01:15:34.833Z,1003.37
2018-02-03T01:16:34.559Z,1003.38
2018-02-03T01:17:34.591Z,1003.36
2018-02-03T01:18:34.619Z,1003.40
2018-02-03T01:19:34.651Z,1003.41
2018-02-03T01:20:34.683Z,1003.42
2018-02-03T01:21:34.706Z,1003.41
2018-02-03T01:22:35.038Z,1003.42
2018-02-03T01:23:34.921Z,1003.43
2018-02-03T01:24:34.801Z,1003.41
2018-02-03T01:25:34.837Z,1003.43
2018-02-03T01:26:34.860Z,1003.44
2018-02-03T01:27:34.893Z,1003.47
2018-02-03T01:28:35.224Z,1003.44
2018-02-03T01:29:34.951Z,1003.43
2018-02-03T01:30:34.978Z,1003.42
2018-02-03T01:31:35.012Z,1003.49
2018-02-03T01:32:35.045Z,1003.48
2018-02-03T01:33:35.068Z,1003.54
2018-02-03T01:34:35.402Z,1003.52
2018-02-03T01:35:35.127Z,1003.48
2018-02-03T01:36:35.158Z,1003.56
2018-02-03T01:37:35.189Z,1003.54
2018-02-03T01:38:35.273Z,1003.53
2018-02-03T01:39:35.398Z,1003.54
2018-02-03T01:40:35.583Z,1003.55
2018-02-03T01:41:35.311Z,1003.54
2018-02-03T01:42:35.339Z,1003.54
2018-02-03T01:43:35.367Z,1003.52
2018-02-03T01:44:35.400Z,1003.48
2018-02-03T01:45:35.442Z,1003.54
2018-02-03T01:46:35.764Z,1003.54
2018-02-03T01:47:35.492Z,1003.55
2018-02-03T01:48:35.522Z,1003.54
2018-02-03T01:49:35.559Z,1003.54
2018-02-03T01:50:35.581Z,1003.55
2018-02-03T01:51:35.609Z,1003.57
2018-02-03T01:52:35.938Z,1003.59
2018-02-03T01:53:35.675Z,1003.57
2018-02-03T01:54:35.797Z,1003.54
2018-02-03T01:55:35.733Z,1003.56
2018-02-03T01:56:35.764Z,1003.56
2018-02-03T01:57:35.787Z,1003.59
2018-02-03T01:58:36.120Z,1003.55
2018-02-03T01:59:35.852Z,1003.57
2018-02-03T02:00:35.903Z,1003.56
2018-02-03T02:01:35.918Z,1003.54
2018-02-03T02:02:35.942Z,1003.58
2018-02-03T02:03:35.968Z,1003.58
2018-02-03T02:04:36.509Z,1003.60
2018-02-03T02:05:36.030Z,1003.61
2018-02-03T02:06:36.067Z,1003.61
2018-02-03T02:07:36.094Z,1003.62
2018-02-03T02:08:36.123Z,1003.67
2018-02-03T02:09:36.155Z,1003.71
2018-02-03T02:10:36.483Z,1003.72
2018-02-03T02:11:36.215Z,1003.69
2018-02-03T02:12:36.246Z,1003.69
2018-02-03T02:13:36.272Z,1003.72
2018-02-03T02:14:36.300Z,1003.74
2018-02-03T02:15:36.330Z,1003.74
2018-02-03T02:16:36.661Z,1003.74
2018-02-03T02:17:36.413Z,1003.75
2018-02-03T02:18:36.422Z,1003.77
2018-02-03T02:19:36.454Z,1003.75
2018-02-03T02:20:36.483Z,1003.77
2018-02-03T02:21:36.528Z,1003.74
2018-02-03T02:22:36.846Z,1003.77
2018-02-03T02:23:36.570Z,1003.75
2018-02-03T02:24:36.602Z,1003.72
2018-02-03T02:25:36.637Z,1003.71
2018-02-03T02:27:36.693Z,1003.72
2018-02-03T02:28:36.727Z,1003.72
2018-02-03T02:29:37.053Z,1003.71
2018-02-03T02:30:36.781Z,1003.68
2018-02-03T02:31:36.868Z,1003.68
2018-02-03T02:33:36.876Z,1003.67
2018-02-03T02:34:36.908Z,1003.71
2018-02-03T02:35:37.234Z,1003.70
2018-02-03T02:37:37.053Z,1003.71
2018-02-03T02:39:37.053Z,1003.70
2018-02-03T02:41:37.415Z,1003.67
2018-02-03T02:42:37.147Z,1003.70
2018-02-03T02:43:37.178Z,1003.69
2018-02-03T02:44:37.209Z,1003.69
2018-02-03T02:45:37.298Z,1003.68
2018-02-03T02:46:37.266Z,1003.66
2018-02-03T02:47:37.295Z,1003.70
2018-02-03T02:48:37.626Z,1003.66
2018-02-03T02:49:37.357Z,1003.69
2018-02-03T02:50:37.493Z,1003.69
2018-02-03T02:51:37.413Z,1003.68
2018-02-03T02:52:37.447Z,1003.72
2018-02-03T02:53:37.479Z,1003.71
2018-02-03T02:54:37.512Z,1003.73
2018-02-03T02:55:37.836Z,1003.70
2018-02-03T02:56:37.571Z,1003.68
2018-02-03T02:57:37.596Z,1003.71
2018-02-03T02:58:37.644Z,1003.72
2018-02-03T02:59:37.657Z,1003.69
2018-02-03T03:00:37.686Z,1003.67
2018-02-03T03:01:37.720Z,1003.68
2018-02-03T03:02:38.047Z,1003.66
2018-02-03T03:03:37.778Z,1003.70
2018-02-03T03:04:37.811Z,1003.71
2018-02-03T03:05:37.839Z,1003.67
2018-02-03T03:06:37.866Z,1003.70
2018-02-03T03:07:37.902Z,1003.68
2018-02-03T03:08:37.929Z,1003.70
2018-02-03T03:09:38.264Z,1003.65
2018-02-03T03:10:37.985Z,1003.67
2018-02-03T03:11:38.072Z,1003.63
2018-02-03T03:12:38.047Z,1003.64
2018-02-03T03:13:38.077Z,1003.61
2018-02-03T03:14:38.108Z,1003.56
2018-02-03T03:15:38.148Z,1003.58
2018-02-03T03:16:38.519Z,1003.60
2018-02-03T03:17:38.200Z,1003.59
2018-02-03T03:18:38.229Z,1003.61
2018-02-03T03:19:38.265Z,1003.61
2018-02-03T03:20:38.291Z,1003.58
2018-02-03T03:21:38.318Z,1003.60
2018-02-03T03:22:38.347Z,1003.58
2018-02-03T03:23:38.682Z,1003.61
2018-02-03T03:24:38.410Z,1003.61
2018-02-03T03:25:38.441Z,1003.60
2018-02-03T03:26:38.670Z,1003.60
2018-02-03T03:27:38.500Z,1003.61
2018-02-03T03:28:38.542Z,1003.58
2018-02-03T03:29:38.560Z,1003.59
2018-02-03T03:30:38.891Z,1003.56
2018-02-03T03:31:38.681Z,1003.59
2018-02-03T03:32:38.647Z,1003.60
2018-02-03T03:33:38.678Z,1003.60
2018-02-03T03:34:38.715Z,1003.66
2018-02-03T03:35:38.742Z,1003.65
2018-02-03T03:36:38.769Z,1003.64
2018-02-03T03:37:39.103Z,1003.67
2018-02-03T03:38:38.831Z,1003.67
2018-02-03T03:39:38.859Z,1003.66
2018-02-03T03:40:38.891Z,1003.68
2018-02-03T03:41:38.924Z,1003.64
2018-02-03T03:42:38.951Z,1003.62
2018-02-03T03:43:38.979Z,1003.58
2018-02-03T03:44:39.323Z,1003.57
2018-02-03T03:45:39.041Z,1003.58
2018-02-03T03:46:39.082Z,1003.59
2018-02-03T03:47:39.099Z,1003.59
2018-02-03T03:49:39.159Z,1003.59
2018-02-03T03:50:39.190Z,1003.56
2018-02-03T03:51:39.571Z,1003.56
2018-02-03T03:52:39.304Z,1003.56
2018-02-03T03:53:39.285Z,1003.56
2018-02-03T03:54:39.337Z,1003.58
2018-02-03T03:55:39.343Z,1003.56
2018-02-03T03:57:39.703Z,1003.59
2018-02-03T03:58:39.431Z,1003.56
2018-02-03T03:59:39.465Z,1003.58
2018-02-03T04:00:39.493Z,1003.58
2018-02-03T04:01:39.521Z,1003.60
2018-02-03T04:02:39.717Z,1003.55
2018-02-03T04:03:39.881Z,1003.54
2018-02-03T04:05:39.701Z,1003.50
2018-02-03T04:06:39.873Z,1003.52
2018-02-03T04:08:39.752Z,1003.48
2018-02-03T04:09:40.668Z,1003.51
2018-02-03T04:10:39.796Z,1003.50
2018-02-03T04:11:39.826Z,1003.47
2018-02-03T04:12:39.857Z,1003.53
2018-02-03T04:13:40.004Z,1003.54
2018-02-03T04:14:39.917Z,1003.55
2018-02-03T04:15:40.241Z,1003.54
2018-02-03T04:16:39.973Z,1003.58
2018-02-03T04:17:40.004Z,1003.57
2018-02-03T04:18:40.033Z,1003.57
2018-02-03T04:19:40.068Z,1003.59
2018-02-03T04:20:40.094Z,1003.57
2018-02-03T04:21:40.440Z,1003.58
2018-02-03T04:22:40.172Z,1003.50
2018-02-03T04:23:40.194Z,1003.54
2018-02-03T04:24:40.264Z,1003.53
2018-02-03T04:25:40.247Z,1003.48
2018-02-03T04:26:40.278Z,1003.44
2018-02-03T04:27:40.607Z,1003.46
2018-02-03T04:28:40.343Z,1003.50
2018-02-03T04:29:40.371Z,1003.49
2018-02-03T04:30:40.402Z,1003.50
2018-02-03T04:31:40.429Z,1003.48
2018-02-03T04:32:40.456Z,1003.45
2018-02-03T04:33:40.792Z,1003.44
2018-02-03T04:34:40.522Z,1003.40
2018-02-03T04:35:40.567Z,1003.40
2018-02-03T04:36:40.602Z,1003.37
2018-02-03T04:37:40.610Z,1003.38
2018-02-03T04:38:40.741Z,1003.35
2018-02-03T04:39:40.972Z,1003.42
2018-02-03T04:40:40.712Z,1003.35
2018-02-03T04:41:40.740Z,1003.38
2018-02-03T04:42:40.769Z,1003.39
2018-02-03T04:43:40.790Z,1003.43
2018-02-03T04:44:40.877Z,1003.41
2018-02-03T04:45:41.152Z,1003.39
2018-02-03T04:46:40.882Z,1003.38
2018-02-03T04:47:40.925Z,1003.39
2018-02-03T04:48:40.957Z,1003.34
2018-02-03T04:49:40.973Z,1003.34
2018-02-03T04:50:41.001Z,1003.31
2018-02-03T04:51:41.339Z,1003.32
2018-02-03T04:52:41.064Z,1003.32
2018-02-03T04:53:41.119Z,1003.26
2018-02-03T04:54:41.181Z,1003.31
2018-02-03T04:55:41.163Z,1003.33
2018-02-03T04:56:41.183Z,1003.29
2018-02-03T04:57:41.515Z,1003.29
2018-02-03T04:58:41.246Z,1003.29
2018-02-03T04:59:41.278Z,1003.23
2018-02-03T05:00:41.330Z,1003.23
2018-02-03T05:01:41.336Z,1003.23
2018-02-03T05:02:41.401Z,1003.20
2018-02-03T05:04:41.740Z,1003.21
2018-02-03T05:05:41.459Z,1003.21
2018-02-03T05:06:41.491Z,1003.23
2018-02-03T05:07:41.513Z,1003.23
2018-02-03T05:08:41.644Z,1003.23
2018-02-03T05:09:41.576Z,1003.21
2018-02-03T05:10:41.603Z,1003.23
2018-02-03T05:11:41.940Z,1003.20
2018-02-03T05:12:41.672Z,1003.20
2018-02-03T05:13:41.817Z,1003.16
2018-02-03T05:14:41.727Z,1003.16
2018-02-03T05:15:41.763Z,1003.15
2018-02-03T05:16:41.790Z,1003.18
2018-02-03T05:17:41.831Z,1003.21
2018-02-03T05:18:42.281Z,1003.17
2018-02-03T05:19:41.878Z,1003.13
2018-02-03T05:20:41.910Z,1003.12
2018-02-03T05:21:41.940Z,1003.11
2018-02-03T05:26:42.390Z,1003.09
2018-02-03T05:27:42.118Z,1003.12
2018-02-03T05:28:42.148Z,1003.11
2018-02-03T05:29:42.185Z,1003.12
2018-02-03T05:30:42.212Z,1003.15
2018-02-03T05:31:42.289Z,1003.19
2018-02-03T05:32:42.268Z,1003.16
2018-02-03T05:34:42.628Z,1003.12
2018-02-03T05:36:42.403Z,1003.09
2018-02-03T05:37:42.434Z,1003.09
2018-02-03T05:42:42.878Z,1002.97
2018-02-03T05:43:42.626Z,1003.00
2018-02-03T05:44:42.637Z,1003.02
2018-02-03T05:45:42.661Z,1002.95
2018-02-03T05:46:42.741Z,1002.96
2018-02-03T05:47:42.717Z,1002.97
2018-02-03T05:48:42.751Z,1002.97
2018-02-03T05:49:43.085Z,1002.97
2018-02-03T05:50:42.809Z,1002.99
2018-02-03T05:51:42.900Z,1003.02
2018-02-03T05:52:42.895Z,1003.00
2018-02-03T05:53:42.904Z,1002.99
2018-02-03T05:54:42.931Z,1003.00
2018-02-03T05:55:42.969Z,1003.02
2018-02-03T05:56:43.297Z,1002.99
2018-02-03T05:57:43.022Z,1002.98
2018-02-03T05:58:43.052Z,1002.97
2018-02-03T05:59:43.087Z,1002.94
2018-02-03T06:00:43.114Z,1002.93
2018-02-03T06:01:43.245Z,1002.95
2018-02-03T06:02:43.172Z,1002.93
2018-02-03T06:03:43.204Z,1002.94
2018-02-03T06:04:43.240Z,1002.96
2018-02-03T06:05:43.269Z,1002.99
2018-02-03T06:06:43.316Z,1002.95
2018-02-03T06:07:43.324Z,1002.97
2018-02-03T06:08:43.357Z,1002.94
2018-02-03T06:09:43.687Z,1002.92
2018-02-03T06:10:43.417Z,1002.94
2018-02-03T06:11:43.445Z,1002.95
2018-02-03T06:12:43.543Z,1002.95
2018-02-03T06:13:43.505Z,1002.93
2018-02-03T06:14:43.542Z,1002.97
2018-02-03T06:15:43.569Z,1002.98
2018-02-03T06:16:43.896Z,1002.98
2018-02-03T06:17:43.629Z,1002.97
2018-02-03T06:18:43.675Z,1002.95
2018-02-03T06:19:43.689Z,1002.97
2018-02-03T06:20:43.716Z,1002.94
2018-02-03T06:21:43.761Z,1002.92
2018-02-03T06:22:43.786Z,1002.95
2018-02-03T06:23:44.127Z,1002.94
2018-02-03T06:24:43.838Z,1002.92
2018-02-03T06:25:43.883Z,1002.93
2018-02-03T06:26:43.946Z,1002.94
2018-02-03T06:27:43.938Z,1002.94
2018-02-03T06:28:43.966Z,1002.93
2018-02-03T06:29:44.293Z,1002.96
2018-02-03T06:30:44.019Z,1002.96
2018-02-03T06:31:44.053Z,1002.98
2018-02-03T06:32:44.081Z,1002.96
2018-02-03T06:33:44.116Z,1002.99
2018-02-03T06:34:44.146Z,1002.97
2018-02-03T06:35:44.489Z,1002.97
2018-02-03T06:36:44.207Z,1002.96
2018-02-03T06:37:44.232Z,1002.95
2018-02-03T06:38:44.263Z,1002.91
2018-02-03T06:39:44.290Z,1002.92
2018-02-03T06:40:44.326Z,1002.91
2018-02-03T06:41:44.663Z,1002.85
2018-02-03T06:42:44.400Z,1002.87
2018-02-03T06:43:44.444Z,1002.87
2018-02-03T06:44:44.446Z,1002.90
2018-02-03T06:45:44.480Z,1002.89
2018-02-03T06:46:44.506Z,1002.89
2018-02-03T06:47:44.843Z,1002.92
2018-02-03T06:48:44.565Z,1002.93
2018-02-03T06:49:44.662Z,1002.90
2018-02-03T06:50:44.676Z,1002.91
2018-02-03T06:51:44.666Z,1002.92
2018-02-03T06:52:44.736Z,1002.93
2018-02-03T06:53:45.017Z,1002.89
2018-02-03T06:54:44.747Z,1002.91
2018-02-03T06:55:44.787Z,1002.90
2018-02-03T06:56:44.813Z,1002.87
2018-02-03T06:57:44.838Z,1002.90
2018-02-03T06:58:44.868Z,1002.85
2018-02-03T06:59:45.202Z,1002.84
2018-02-03T07:00:44.928Z,1002.84
2018-02-03T07:01:44.959Z,1002.81
2018-02-03T07:02:44.988Z,1002.84
2018-02-03T07:03:45.033Z,1002.85
2018-02-03T07:04:45.063Z,1002.80
2018-02-03T07:05:45.384Z,1002.80
2018-02-03T07:06:45.110Z,1002.85
2018-02-03T07:07:45.142Z,1002.82
2018-02-03T07:08:45.222Z,1002.83
2018-02-03T07:09:45.201Z,1002.88
2018-02-03T07:13:45.628Z,1002.85
2018-02-03T07:17:46.150Z,1002.87
2018-02-03T07:18:45.670Z,1002.85
2018-02-03T07:19:47.215Z,1002.83
2018-02-03T07:20:45.538Z,1002.85
2018-02-03T07:21:45.578Z,1002.88
2018-02-03T07:22:45.595Z,1002.84
2018-02-03T07:23:45.773Z,1002.84
2018-02-03T07:24:45.652Z,1002.85
2018-02-03T07:25:46.039Z,1002.83
2018-02-03T07:26:45.805Z,1002.84
2018-02-03T07:27:45.760Z,1002.85
2018-02-03T07:28:45.777Z,1002.85
2018-02-03T07:29:45.802Z,1002.87
2018-02-03T07:30:45.834Z,1002.88
2018-02-03T07:31:46.173Z,1002.87
2018-02-03T07:32:45.897Z,1002.87
2018-02-03T07:33:45.928Z,1002.92
2018-02-03T07:34:46.153Z,1002.90
2018-02-03T07:35:45.989Z,1002.93
2018-02-03T07:36:46.014Z,1002.95
2018-02-03T07:37:46.347Z,1002.94
2018-02-03T07:38:46.575Z,1002.94
2018-02-03T07:39:46.108Z,1002.96
2018-02-03T07:40:46.185Z,1002.95
2018-02-03T07:41:46.176Z,1002.99
2018-02-03T07:42:46.194Z,1003.01
2018-02-03T07:43:46.327Z,1003.00
2018-02-03T07:44:46.686Z,1003.00
2018-02-03T07:45:46.337Z,1002.97
2018-02-03T07:46:46.318Z,1002.99
2018-02-03T07:47:46.355Z,1003.00
2018-02-03T07:48:46.376Z,1002.99
2018-02-03T07:49:46.411Z,1002.98
2018-02-03T07:50:46.438Z,1002.99
2018-02-03T07:51:46.769Z,1002.97
2018-02-03T07:52:46.498Z,1002.94
2018-02-03T07:53:46.528Z,1002.96
2018-02-03T07:54:46.559Z,1002.95
2018-02-03T07:55:46.587Z,1002.91
2018-02-03T07:56:46.617Z,1002.92
2018-02-03T07:57:46.647Z,1002.94
2018-02-03T07:58:46.982Z,1002.94
2018-02-03T07:59:46.763Z,1002.92
2018-02-03T08:00:46.739Z,1002.90
2018-02-03T08:01:46.774Z,1002.92
2018-02-03T08:02:46.804Z,1002.95
2018-02-03T08:03:46.882Z,1002.95
2018-02-03T08:04:47.260Z,1002.94
2018-02-03T08:05:46.892Z,1002.93
2018-02-03T08:06:46.919Z,1002.91
2018-02-03T08:07:46.953Z,1002.90
2018-02-03T08:08:46.978Z,1002.92
2018-02-03T08:09:47.012Z,1002.89
2018-02-03T08:10:47.041Z,1002.93
2018-02-03T08:15:47.642Z,1002.93
2018-02-03T08:16:47.237Z,1002.95
2018-02-03T08:17:47.253Z,1002.91
2018-02-03T08:18:47.287Z,1002.90
2018-02-03T08:19:47.313Z,1002.91
2018-02-03T08:20:47.348Z,1002.93
2018-02-03T08:21:47.412Z,1002.92
2018-02-03T08:22:47.706Z,1002.92
2018-02-03T08:23:47.435Z,1002.89
2018-02-03T08:24:47.467Z,1002.89
2018-02-03T08:25:47.499Z,1002.88
2018-02-03T08:26:47.626Z,1002.91
2018-02-03T08:27:47.555Z,1002.91
2018-02-03T08:28:47.586Z,1002.89
2018-02-03T08:29:47.923Z,1002.88
2018-02-03T08:30:47.700Z,1002.89
2018-02-03T08:31:47.679Z,1002.90
2018-02-03T08:32:47.706Z,1002.89
2018-02-03T08:33:47.738Z,1002.88
2018-02-03T08:34:47.767Z,1002.88
2018-02-03T08:35:47.798Z,1002.85
2018-02-03T08:36:48.130Z,1002.83
2018-02-03T08:37:47.933Z,1002.82
2018-02-03T08:38:47.895Z,1002.84
2018-02-03T08:39:47.925Z,1002.82
2018-02-03T08:40:47.957Z,1002.81
2018-02-03T08:41:48.039Z,1002.80
2018-02-03T08:42:48.012Z,1002.80
2018-02-03T08:44:48.377Z,1002.82
2018-02-03T08:45:48.117Z,1002.75
2018-02-03T08:46:48.339Z,1002.76
2018-02-03T08:47:48.166Z,1002.75
2018-02-03T08:48:48.199Z,1002.75
2018-02-03T08:49:48.231Z,1002.75
2018-02-03T08:50:48.262Z,1002.69
2018-02-03T08:51:48.594Z,1002.70
2018-02-03T08:52:48.370Z,1002.71
2018-02-03T08:53:48.350Z,1002.73
2018-02-03T08:54:48.379Z,1002.74
2018-02-03T08:55:48.410Z,1002.73
2018-02-03T08:56:48.446Z,1002.73
2018-02-03T08:57:48.470Z,1002.71
2018-02-03T08:58:48.815Z,1002.71
2018-02-03T09:00:48.566Z,1002.73
2018-02-03T09:01:48.596Z,1002.76
2018-02-03T09:02:48.628Z,1002.71
2018-02-03T09:03:48.666Z,1002.70
2018-02-03T09:04:48.738Z,1002.72
2018-02-03T09:05:49.021Z,1002.70
2018-02-03T09:06:48.751Z,1002.80
2018-02-03T09:07:48.779Z,1002.74
2018-02-03T09:08:48.913Z,1002.84
2018-02-03T09:09:48.839Z,1002.78
2018-02-03T09:10:48.879Z,1002.80
2018-02-03T09:11:49.200Z,1002.79
2018-02-03T09:12:48.931Z,1002.81
2018-02-03T09:13:48.967Z,1002.81
2018-02-03T09:14:48.992Z,1002.82
2018-02-03T09:15:49.037Z,1002.84
2018-02-03T09:16:49.052Z,1002.86
2018-02-03T09:17:49.088Z,1002.87
2018-02-03T09:18:49.515Z,1002.85
2018-02-03T09:19:49.146Z,1002.84
2018-02-03T09:20:49.184Z,1002.83
2018-02-03T09:21:49.209Z,1002.83
2018-02-03T09:22:49.238Z,1002.83
2018-02-03T09:23:49.292Z,1002.79
2018-02-03T09:24:49.604Z,1002.79
2018-02-03T09:25:49.333Z,1002.76
2018-02-03T09:26:49.358Z,1002.77
2018-02-03T09:27:49.396Z,1002.76
2018-02-03T09:28:49.419Z,1002.72
2018-02-03T09:29:49.454Z,1002.71
2018-02-03T09:30:49.783Z,1002.75
2018-02-03T09:31:49.529Z,1002.73
2018-02-03T09:32:49.548Z,1002.77
2018-02-03T09:33:49.578Z,1002.74
2018-02-03T09:34:49.604Z,1002.73
2018-02-03T09:35:49.637Z,1002.73
2018-02-03T09:36:49.966Z,1002.69
2018-02-03T09:37:49.812Z,1002.67
2018-02-03T09:38:49.736Z,1002.69
2018-02-03T09:39:49.764Z,1002.67
2018-02-03T09:40:49.789Z,1002.67
2018-02-03T09:41:49.833Z,1002.67
2018-02-03T09:42:50.152Z,1002.67
2018-02-03T09:43:49.992Z,1002.70
2018-02-03T09:44:49.914Z,1002.64
2018-02-03T09:45:49.948Z,1002.65
2018-02-03T09:46:49.974Z,1002.62
2018-02-03T09:47:50.067Z,1002.60
2018-02-03T09:48:50.056Z,1002.56
2018-02-03T09:49:50.371Z,1002.61
2018-02-03T09:50:50.099Z,1002.56
2018-02-03T09:51:50.153Z,1002.55
2018-02-03T09:52:50.313Z,1002.53
2018-02-03T09:53:50.193Z,1002.55
2018-02-03T09:54:50.220Z,1002.49
2018-02-03T09:55:50.558Z,1002.51
2018-02-03T09:56:50.285Z,1002.53
2018-02-03T09:57:50.314Z,1002.50
2018-02-03T09:58:50.342Z,1002.53
2018-02-03T09:59:50.377Z,1002.52
2018-02-03T10:00:50.406Z,1002.52
2018-02-03T10:01:50.742Z,1002.49
2018-02-03T10:02:50.574Z,1002.49
2018-02-03T10:03:50.543Z,1002.45
2018-02-03T10:04:50.527Z,1002.45
2018-02-03T10:05:50.559Z,1002.43
2018-02-03T10:06:50.606Z,1002.42
2018-02-03T10:07:50.919Z,1002.42
2018-02-03T10:08:50.654Z,1002.42
2018-02-03T10:09:50.682Z,1002.45
2018-02-03T10:10:50.711Z,1002.45
2018-02-03T10:11:50.741Z,1002.49
2018-02-03T10:12:50.771Z,1002.48
2018-02-03T10:13:51.259Z,1002.47
2018-02-03T10:14:50.833Z,1002.47
2018-02-03T10:17:50.932Z,1002.46
2018-02-03T10:18:50.955Z,1002.49
2018-02-03T10:19:51.302Z,1002.43
2018-02-03T10:20:51.106Z,1002.45
2018-02-03T10:21:51.052Z,1002.45
2018-02-03T10:22:51.109Z,1002.43
2018-02-03T10:23:51.114Z,1002.45
2018-02-03T10:24:51.390Z,1002.43
2018-02-03T10:25:51.184Z,1002.41
2018-02-03T10:26:51.503Z,1002.43
2018-02-03T10:27:51.236Z,1002.40
2018-02-03T10:28:51.276Z,1002.40
2018-02-03T10:29:51.297Z,1002.42
2018-02-03T10:30:51.330Z,1002.40
2018-02-03T10:31:51.359Z,1002.47
2018-02-03T10:32:51.694Z,1002.45
2018-02-03T10:33:51.423Z,1002.48
2018-02-03T10:34:51.455Z,1002.51
2018-02-03T10:35:51.482Z,1002.49
2018-02-03T10:36:51.513Z,1002.50
2018-02-03T10:37:51.714Z,1002.51
2018-02-03T10:38:51.933Z,1002.48
2018-02-03T10:39:51.609Z,1002.49
2018-02-03T10:40:51.637Z,1002.53
2018-02-03T10:41:51.822Z,1002.50
2018-02-03T10:42:51.700Z,1002.54
2018-02-03T10:43:51.734Z,1002.56
2018-02-03T10:44:52.065Z,1002.57
2018-02-03T10:45:51.796Z,1002.52
2018-02-03T10:46:51.822Z,1002.53
2018-02-03T10:47:51.862Z,1002.53
2018-02-03T10:48:51.894Z,1002.50
2018-02-03T10:49:51.925Z,1002.49
2018-02-03T10:50:51.950Z,1002.51
2018-02-03T10:51:52.379Z,1002.57
2018-02-03T10:52:52.078Z,1002.57
2018-02-03T10:53:52.044Z,1002.56
2018-02-03T10:54:52.075Z,1002.57
2018-02-03T10:55:52.110Z,1002.54
2018-02-03T10:56:52.143Z,1002.56
2018-02-03T10:57:52.470Z,1002.54
2018-02-03T10:58:52.203Z,1002.55
2018-02-03T10:59:52.229Z,1002.53
2018-02-03T11:00:52.268Z,1002.55
2018-02-03T11:01:52.292Z,1002.54
2018-02-03T11:02:52.422Z,1002.55
2018-02-03T11:03:52.656Z,1002.52
2018-02-03T11:04:52.388Z,1002.51
2018-02-03T11:05:52.424Z,1002.45
2018-02-03T11:06:52.823Z,1002.46
2018-02-03T11:07:52.482Z,1002.45
2018-02-03T11:08:52.514Z,1002.43
2018-02-03T11:09:52.858Z,1002.43
2018-02-03T11:10:52.578Z,1002.43
2018-02-03T11:11:52.611Z,1002.47
2018-02-03T11:12:52.643Z,1002.46
2018-02-03T11:13:52.872Z,1002.43
2018-02-03T11:14:52.698Z,1002.42
2018-02-03T11:15:53.059Z,1002.42
2018-02-03T11:16:52.761Z,1002.41
2018-02-03T11:17:52.799Z,1002.39
2018-02-03T11:18:52.825Z,1002.40
2018-02-03T11:19:52.864Z,1002.38
2018-02-03T11:20:52.889Z,1002.38
2018-02-03T11:21:53.219Z,1002.37
2018-02-03T11:22:52.948Z,1002.34
2018-02-03T11:23:52.983Z,1002.34
2018-02-03T11:24:53.063Z,1002.34
2018-02-03T11:25:53.049Z,1002.34
2018-02-03T11:26:53.079Z,1002.30
2018-02-03T11:27:53.405Z,1002.32
2018-02-03T11:28:53.186Z,1002.29
2018-02-03T11:29:53.175Z,1002.28
2018-02-03T11:30:53.201Z,1002.25
2018-02-03T11:31:53.232Z,1002.28
2018-02-03T11:32:53.262Z,1002.27
2018-02-03T11:33:53.598Z,1002.25
2018-02-03T11:34:53.328Z,1002.26
2018-02-03T11:36:53.405Z,1002.22
2018-02-03T11:37:53.418Z,1002.17
2018-02-03T11:38:53.606Z,1002.21
2018-02-03T11:39:53.833Z,1002.23
2018-02-03T11:40:53.512Z,1002.21
2018-02-03T11:41:53.554Z,1002.19
2018-02-03T11:42:53.574Z,1002.21
2018-02-03T11:43:53.618Z,1002.23
2018-02-03T11:44:53.646Z,1002.19
2018-02-03T11:45:53.975Z,1002.19
2018-02-03T11:46:53.727Z,1002.22
2018-02-03T11:47:53.731Z,1002.15
2018-02-03T11:48:53.768Z,1002.15
2018-02-03T11:53:54.370Z,1002.12
2018-02-03T11:55:53.985Z,1002.12
2018-02-03T11:56:54.011Z,1002.10
2018-02-03T11:57:54.039Z,1002.13
2018-02-03T11:58:54.071Z,1002.06
2018-02-03T11:59:54.420Z,1002.08
2018-02-03T12:00:54.140Z,1002.12
2018-02-03T12:01:54.163Z,1002.11
2018-02-03T12:02:54.195Z,1002.12
2018-02-03T12:03:54.222Z,1002.09
2018-02-03T12:04:54.309Z,1002.13
2018-02-03T12:05:54.590Z,1002.10
2018-02-03T12:06:54.315Z,1002.13
2018-02-03T12:07:54.351Z,1002.12
2018-02-03T12:08:54.376Z,1002.10
2018-02-03T12:09:54.559Z,1002.15
2018-02-03T12:10:54.467Z,1002.15
2018-02-03T12:11:54.791Z,1002.20
2018-02-03T12:12:54.503Z,1002.17
2018-02-03T12:13:54.531Z,1002.17
2018-02-03T12:14:54.569Z,1002.14
2018-02-03T12:15:54.694Z,1002.14
2018-02-03T12:16:54.629Z,1002.16
2018-02-03T12:17:54.724Z,1002.15
2018-02-03T12:18:55.186Z,1002.13
2018-02-03T12:19:54.714Z,1002.12
2018-02-03T12:20:54.745Z,1002.12
2018-02-03T12:21:54.773Z,1002.18
2018-02-03T12:22:54.807Z,1002.14
2018-02-03T12:23:54.838Z,1002.16
2018-02-03T12:24:55.170Z,1002.14
2018-02-03T12:25:54.900Z,1002.17
2018-02-03T12:26:54.928Z,1002.15
2018-02-03T12:27:54.965Z,1002.16
2018-02-03T12:28:54.992Z,1002.17
2018-02-03T12:29:55.027Z,1002.14
2018-02-03T12:30:55.352Z,1002.14
2018-02-03T12:31:55.234Z,1002.12
2018-02-03T12:32:55.113Z,1002.11
2018-02-03T12:33:55.146Z,1002.11
2018-02-03T12:34:55.177Z,1002.08
2018-02-03T12:35:55.210Z,1002.05
2018-02-03T12:36:55.543Z,1002.04
2018-02-03T12:37:55.270Z,1002.06
2018-02-03T12:38:55.301Z,1002.05
2018-02-03T12:39:55.328Z,1001.97
2018-02-03T12:40:55.374Z,1001.99
2018-02-03T12:41:55.409Z,1001.96
2018-02-03T12:42:55.773Z,1001.94
2018-02-03T12:43:55.454Z,1001.93
2018-02-03T12:44:55.493Z,1001.92
2018-02-03T12:45:55.662Z,1001.90
2018-02-03T12:46:55.545Z,1001.92
2018-02-03T12:47:55.592Z,1001.92
2018-02-03T12:48:55.906Z,1001.92
2018-02-03T12:49:55.645Z,1001.89
2018-02-03T12:50:55.671Z,1001.87
2018-02-03T12:51:55.701Z,1001.86
2018-02-03T12:52:55.736Z,1001.85